Time;durP1;ratioP1;P1;durP2;ratioP2;P2;SDS_P1;SDS_P2;PMS_P1;PMS_P2;Temp;Humidity;BMP_temperature;BMP_pressure;BME280_temperature;BME280_humidity;BME280_pressure;Samples;Min_cycle;Max_cycle;Signal;HPM_P1;HPM_P2
2023/02/23 00:00:27;;;;;;;;;19.33;18.67;;;;;11.13;66.44;101209.28;2020632;28;3568951;-74
2023/02/23 00:01:41;;;;;;;;;18.00;14.83;;;;;11.13;66.46;101214.53;2053678;28;1837820;-74
2023/02/23 00:02:51;;;;;;;;;19.00;17.00;;;;;11.13;66.29;101211.91;2003269;28;2827412;-74
2023/02/23 00:04:03;;;;;;;;;18.33;17.00;;;;;11.13;66.15;101211.91;2037403;27;3558566;-74
2023/02/23 00:05:16;;;;;;;;;20.67;18.67;;;;;11.13;66.13;101211.91;2027425;28;3565872;-74
2023/02/23 00:06:29;;;;;;;;;18.33;16.33;;;;;11.12;66.29;101207.53;2022971;28;3562733;-74
2023/02/23 00:07:42;;;;;;;;;20.50;18.00;;;;;11.12;66.11;101200.53;2026601;27;2844011;-74
2023/02/23 00:08:54;;;;;;;;;19.67;17.00;;;;;11.13;66.08;101204.03;2000422;27;3571112;-74
2023/02/23 00:10:09;;;;;;;;;20.67;19.33;;;;;11.13;66.18;101210.16;2034125;27;3575223;-74
2023/02/23 00:11:21;;;;;;;;;23.00;20.00;;;;;11.16;66.03;101211.81;2024385;28;2831547;-74
2023/02/23 00:12:33;;;;;;;;;19.00;19.00;;;;;11.17;66.31;101207.41;2024735;27;2823183;-74
2023/02/23 00:13:48;;;;;;;;;18.60;17.40;;;;;11.17;65.63;101200.38;2020177;28;2825215;-74
2023/02/23 00:15:00;;;;;;;;;21.33;20.00;;;;;11.17;66.17;101200.38;2000255;28;2824604;-74
2023/02/23 00:16:13;;;;;;;;;19.33;16.67;;;;;11.18;65.85;101203.88;2022253;28;3573161;-74
2023/02/23 00:17:25;;;;;;;;;22.00;20.00;;;;;11.16;65.98;101196.03;2022978;28;3575220;-74
2023/02/23 00:18:43;;;;;;;;;18.00;16.33;;;;;11.18;65.96;101202.13;2040325;28;2833692;-74
2023/02/23 00:19:56;;;;;;;;;18.33;18.33;;;;;11.18;65.70;101194.25;2023559;28;3571169;-74
2023/02/23 00:21:08;;;;;;;;;22.40;19.00;;;;;11.19;65.55;101201.19;2035226;28;2837750;-74
2023/02/23 00:22:20;;;;;;;;;23.20;18.20;;;;;11.20;65.67;101197.69;2020086;28;3579378;-74
2023/02/23 00:23:32;;;;;;;;;20.20;17.00;;;;;11.21;65.79;101203.81;2037321;28;3565841;-74
2023/02/23 00:24:46;;;;;;;;;18.50;17.17;;;;;11.20;65.44;101202.94;2058638;28;2835730;-74
2023/02/23 00:25:58;;;;;;;;;19.67;17.67;;;;;11.21;65.20;101204.66;1991531;28;3567929;-74
2023/02/23 00:27:12;;;;;;;;;18.00;18.00;;;;;11.21;65.39;101203.81;2023664;28;3562717;-74
2023/02/23 00:28:23;;;;;;;;;15.67;15.67;;;;;11.20;65.50;101202.94;2019047;28;2808580;-74
2023/02/23 00:29:38;;;;;;;;;20.00;19.00;;;;;11.20;65.39;101200.31;2017906;27;2835690;-74
2023/02/23 00:30:48;;;;;;;;;20.00;16.00;;;;;11.21;65.63;101206.44;1994138;28;2828395;-74
2023/02/23 00:32:00;;;;;;;;;20.40;19.40;;;;;11.23;65.42;101202.88;2020496;28;3579437;-74
2023/02/23 00:33:12;;;;;;;;;23.60;20.60;;;;;11.23;65.39;101202.88;2047036;28;3577303;-74
2023/02/23 00:34:24;;;;;;;;;31.67;22.67;;;;;11.23;65.24;101202.00;2041352;28;3605462;-74
2023/02/23 00:35:36;;;;;;;;;19.33;18.33;;;;;11.23;65.23;101202.88;2016574;27;2842085;-74
2023/02/23 00:36:53;;;;;;;;;20.00;15.00;;;;;11.23;65.46;101205.50;2024312;27;2811717;-74
2023/02/23 00:38:05;;;;;;;;;18.67;18.67;;;;;11.23;65.26;101208.13;2023824;28;3567987;-74
2023/02/23 00:39:27;;;;;;;;;22.33;19.00;;;;;11.23;65.21;101199.38;2039016;28;3567964;-74
2023/02/23 00:40:39;;;;;;;;;23.00;23.00;;;;;11.20;65.58;101194.19;2020200;28;2839848;-74
2023/02/23 00:41:52;;;;;;;;;26.33;20.33;;;;;11.20;65.25;101204.72;2019356;27;3585644;-74
2023/02/23 00:43:03;;;;;;;;;23.67;23.00;;;;;11.18;65.56;101202.13;2017990;28;3572115;-74
2023/02/23 00:44:15;;;;;;;;;26.67;21.00;;;;;11.20;65.40;101196.81;2040344;27;3581542;-74
2023/02/23 00:45:27;;;;;;;;;23.00;21.33;;;;;11.19;65.62;101201.19;2037731;28;3572123;-74
2023/02/23 00:46:41;;;;;;;;;27.67;24.00;;;;;11.18;65.36;101194.25;2036446;27;3587727;-74
2023/02/23 00:47:51;;;;;;;;;28.50;23.50;;;;;11.20;65.52;101205.56;2024813;28;2849236;-74
2023/02/23 00:49:04;;;;;;;;;26.33;23.33;;;;;11.19;65.42;101195.94;2015720;28;3575200;-74
2023/02/23 00:50:16;;;;;;;;;27.40;24.80;;;;;11.20;65.18;101202.94;2028434;28;3585640;-74
2023/02/23 00:51:31;;;;;;;;;22.33;18.67;;;;;11.19;65.26;101203.84;2004018;27;2838752;-74
2023/02/23 00:52:43;;;;;;;;;22.00;21.00;;;;;11.19;65.32;101198.56;2023405;27;3579370;-74
2023/02/23 00:53:55;;;;;;;;;28.00;24.33;;;;;11.20;65.51;101204.72;2014204;28;3583584;-74
2023/02/23 00:55:09;;;;;;;;;25.00;23.00;;;;;11.19;65.71;101205.59;2030741;28;3586649;-74
2023/02/23 00:56:23;;;;;;;;;23.29;22.57;;;;;11.19;65.51;101203.84;2029013;28;1842416;-74
2023/02/23 00:57:34;;;;;;;;;34.00;23.50;;;;;11.19;65.45;101209.09;2024822;28;2862793;-74
2023/02/23 00:58:45;;;;;;;;;26.50;22.00;;;;;11.18;65.67;101206.53;2000056;28;2837726;-74
2023/02/23 00:59:56;;;;;;;;;25.67;21.33;;;;;11.18;65.36;101209.16;2015588;27;3581473;-74
2023/02/23 01:01:11;;;;;;;;;30.20;24.20;;;;;11.16;65.40;101208.34;2043887;28;3597058;-74
2023/02/23 01:02:22;;;;;;;;;30.00;27.00;;;;;11.16;65.50;101210.97;2001719;28;2841904;-74
2023/02/23 01:03:33;;;;;;;;;34.00;29.50;;;;;11.15;65.41;101207.47;2026444;27;2873153;-74
2023/02/23 01:04:45;;;;;;;;;29.20;25.80;;;;;11.14;64.93;101211.88;2021651;28;3589807;-74
2023/02/23 01:06:03;;;;;;;;;23.00;19.50;;;;;11.13;64.99;101211.91;2040224;28;2842986;-74
2023/02/23 01:07:14;;;;;;;;;33.50;25.50;;;;;11.12;65.51;101215.44;2002526;28;2853836;-74
2023/02/23 01:08:28;;;;;;;;;32.80;26.40;;;;;11.12;65.31;101210.19;2018488;27;3583868;-74
2023/02/23 01:09:40;;;;;;;;;31.67;28.33;;;;;11.12;65.57;101210.19;2016526;28;3589768;-74
2023/02/23 01:10:52;;;;;;;;;31.40;29.80;;;;;11.11;65.52;101205.84;2045900;27;3602295;-74
2023/02/23 01:12:06;;;;;;;;;31.00;27.40;;;;;11.11;65.40;101204.03;2012943;28;3598132;-74
2023/02/23 01:13:20;;;;;;;;;31.00;24.00;;;;;11.10;65.58;101207.59;2004705;28;2857525;-74
2023/02/23 01:14:32;;;;;;;;;31.33;28.00;;;;;11.09;65.74;101205.00;2000080;28;2852305;-74
2023/02/23 01:15:46;;;;;;;;;32.33;27.00;;;;;11.10;65.49;101214.63;2023986;27;3604378;-74
2023/02/23 01:16:57;;;;;;;;;37.00;30.00;;;;;11.08;65.44;101206.78;2002561;28;2870020;-74
2023/02/23 01:18:10;;;;;;;;;30.20;28.20;;;;;11.08;65.40;101208.53;2016807;28;3608528;-74
2023/02/23 01:19:20;;;;;;;;;29.00;27.50;;;;;11.07;65.58;101218.19;2004701;27;2846043;-74
2023/02/23 01:20:35;;;;;;;;;35.80;27.40;;;;;11.07;65.86;101212.06;2022885;28;3626620;-74
2023/02/23 01:21:45;;;;;;;;;32.00;30.00;;;;;11.06;65.74;101221.75;2003254;28;2853357;-74
2023/02/23 01:22:57;;;;;;;;;30.80;28.00;;;;;11.05;65.60;101217.38;2018764;28;3587692;-74
2023/02/23 01:24:10;;;;;;;;;33.40;30.00;;;;;11.05;65.50;101227.03;2021578;28;3596032;-74
2023/02/23 01:25:21;;;;;;;;;27.00;25.00;;;;;11.05;65.52;101216.50;2003950;28;2855425;-74
2023/02/23 01:26:36;;;;;;;;;36.50;31.00;;;;;11.03;65.25;101213.94;2004440;28;2849287;-74
2023/02/23 01:27:48;;;;;;;;;31.00;25.67;;;;;11.02;65.57;101213.06;1998727;27;3598199;-74
2023/02/23 01:29:09;;;;;;;;;32.40;27.20;;;;;11.02;65.54;101209.56;2040203;27;3596039;-74
2023/02/23 01:30:21;;;;;;;;;31.00;26.00;;;;;11.02;65.42;101214.81;1991970;28;3601263;-74
2023/02/23 01:31:33;;;;;;;;;35.20;27.20;;;;;11.02;65.67;101212.19;2006616;28;3617918;-74
2023/02/23 01:32:44;;;;;;;;;34.50;29.50;;;;;11.01;65.36;101213.97;2003929;28;2865892;-74
2023/02/23 01:33:59;;;;;;;;;27.00;26.40;;;;;11.01;65.38;101211.31;2021718;28;3581466;-74
2023/02/23 01:35:11;;;;;;;;;31.00;30.00;;;;;11.01;65.38;101216.59;2023037;28;3606440;-74
2023/02/23 01:36:24;;;;;;;;;32.00;30.00;;;;;11.02;65.54;101220.97;1998810;28;2858558;-74
2023/02/23 01:37:39;;;;;;;;;34.00;28.00;;;;;11.01;65.60;101213.97;1996365;28;2864172;-74
2023/02/23 01:38:55;;;;;;;;;35.33;27.00;;;;;11.01;65.41;101213.97;2000684;28;3608619;-74
2023/02/23 01:40:37;;;;;;;;;30.50;27.00;;;;;11.02;65.48;101215.69;1999475;28;2862749;-74
2023/02/23 01:41:50;;;;;;;;;34.00;27.00;;;;;11.03;65.39;101214.81;1996595;28;2866958;-74
2023/02/23 01:43:24;;;;;;;;;28.50;26.50;;;;;11.05;65.50;101221.78;1995201;27;2844014;-74
2023/02/23 01:44:38;;;;;;;;;35.50;28.00;;;;;11.04;65.44;101218.28;2000699;27;2870102;-74
2023/02/23 01:45:48;;;;;;;;;32.50;25.00;;;;;11.05;65.14;101216.50;2000541;28;2860191;-74
2023/02/23 01:47:00;;;;;;;;;27.20;24.00;;;;;11.03;65.31;101214.81;2016833;28;3589771;-74
2023/02/23 01:48:16;;;;;;;;;31.20;24.80;;;;;11.05;65.29;101214.75;2039789;28;3601261;-74
2023/02/23 01:49:29;;;;;;;;;28.67;24.00;;;;;11.05;65.33;101214.75;1998195;28;3578356;-74
2023/02/23 01:50:51;;;;;;;;;26.50;25.50;;;;;11.04;65.39;101218.28;2024740;28;2852331;-74
2023/02/23 01:52:15;;;;;;;;;28.50;25.50;;;;;11.03;65.65;101217.44;1999999;28;2852367;-74
2023/02/23 01:53:30;;;;;;;;;31.50;26.00;;;;;11.05;65.13;101213.88;1999354;28;2832554;-74
2023/02/23 01:54:49;;;;;;;;;31.33;27.67;;;;;11.02;65.18;101207.81;1999567;28;3598157;-74
2023/02/23 01:56:10;;;;;;;;;29.00;27.50;;;;;11.02;65.15;101207.81;1999670;27;2852325;-74
2023/02/23 01:57:23;;;;;;;;;26.00;25.00;;;;;11.02;65.33;101215.69;2008642;27;2835701;-74
2023/02/23 01:58:35;;;;;;;;;34.33;25.00;;;;;11.03;65.44;101211.31;2028965;27;3611696;-74
2023/02/23 01:59:49;;;;;;;;;30.20;24.40;;;;;11.02;65.23;101213.06;2011894;28;3591863;-74
2023/02/23 02:01:01;;;;;;;;;30.67;28.00;;;;;11.03;65.21;101216.56;1991671;28;2852816;-74
2023/02/23 02:02:14;;;;;;;;;28.00;24.67;;;;;11.02;65.23;101212.19;2009603;28;3589779;-74
2023/02/23 02:03:40;;;;;;;;;23.67;22.00;;;;;11.02;65.15;101209.56;2022771;28;3585637;-74
2023/02/23 02:04:54;;;;;;;;;28.00;26.00;;;;;11.01;65.19;101215.75;2017926;28;3602325;-74
2023/02/23 02:06:08;;;;;;;;;22.50;20.00;;;;;10.99;65.22;101215.78;1999803;28;2842322;-74
2023/02/23 02:07:27;;;;;;;;;34.00;26.00;;;;;10.99;65.07;101209.63;1999626;27;3614800;-74
2023/02/23 02:08:44;;;;;;;;;27.50;27.00;;;;;10.99;65.23;101212.28;2002589;27;2847128;-74
2023/02/23 02:10:38;;;;;;;;;27.33;23.00;;;;;10.98;65.29;101216.69;1999647;27;3591941;-74
2023/02/23 02:11:38;;;;;;;;;22.50;20.17;;;;;10.98;65.21;101213.19;2029253;27;1825306;-74
2023/02/23 02:12:53;;;;;;;;;28.00;24.50;;;;;10.99;65.21;101210.50;2000085;28;2831515;-74
2023/02/23 02:14:36;;;;;;;;;26.67;23.67;;;;;10.98;65.31;101214.06;2015874;28;3570526;-74
2023/02/23 02:16:14;;;;;;;;;22.00;21.33;;;;;10.98;64.95;101200.91;2013269;27;3573633;-74
2023/02/23 02:17:53;;;;;;;;;30.33;21.67;;;;;10.97;64.58;101203.56;2023660;27;3602303;-74
2023/02/23 02:19:47;;;;;;;;;24.67;22.33;;;;;10.93;64.92;101196.66;1991647;28;2826320;-74
2023/02/23 02:21:16;;;;;;;;;28.00;22.50;;;;;10.89;64.96;101198.53;2016414;28;2833100;-74
2023/02/23 02:23:20;;;;;;;;;24.00;23.33;;;;;10.89;64.88;101198.53;2022118;28;3571100;-74
2023/02/23 02:24:57;;;;;;;;;22.00;18.67;;;;;10.88;65.07;101197.66;2022385;28;2832611;-74
2023/02/23 02:26:49;;;;;;;;;25.67;21.00;;;;;10.88;64.91;101202.94;2013473;28;3568314;-74
2023/02/23 02:28:09;;;;;;;;;24.50;20.00;;;;;10.88;64.99;101199.44;2010769;27;2835678;-74
2023/02/23 02:29:58;;;;;;;;;26.00;24.00;;;;;10.88;65.17;101204.69;2022941;28;3579395;-74
2023/02/23 02:31:19;;;;;;;;;24.33;22.33;;;;;10.89;65.00;101203.78;2020913;28;3579406;-73
2023/02/23 02:32:57;;;;;;;;;31.33;22.00;;;;;10.88;64.98;101197.66;2017370;28;3593981;-74
2023/02/23 02:34:28;;;;;;;;;25.33;21.67;;;;;10.88;65.13;101197.66;2023317;28;3592941;-74
2023/02/23 02:35:48;;;;;;;;;24.00;22.67;;;;;10.87;64.91;101193.28;1998925;28;3575286;-74
2023/02/23 02:37:16;;;;;;;;;29.00;22.00;;;;;10.87;65.06;101201.19;2022710;27;2851303;-74
2023/02/23 02:38:41;;;;;;;;;20.50;20.50;;;;;10.88;64.93;101197.66;1993504;28;2838807;-74
2023/02/23 02:40:22;;;;;;;;;20.50;19.00;;;;;10.87;64.88;101200.31;2019544;28;2834793;-74
2023/02/23 02:41:41;;;;;;;;;26.33;23.00;;;;;10.86;64.93;101195.97;2015862;28;3585676;-74
2023/02/23 02:43:10;;;;;;;;;24.00;21.33;;;;;10.86;65.14;101203.88;2022547;28;3581537;-74
2023/02/23 02:44:31;;;;;;;;;23.67;20.67;;;;;10.86;65.06;101203.88;2051393;28;1846246;-74
2023/02/23 02:46:01;;;;;;;;;25.33;21.33;;;;;10.85;65.22;101203.00;1998479;28;3585651;-74
2023/02/23 02:47:18;;;;;;;;;28.00;22.50;;;;;10.86;65.16;101204.75;2016940;28;2852340;-74
2023/02/23 02:48:56;;;;;;;;;23.33;21.33;;;;;10.87;65.39;101208.22;1993919;28;3585617;-74
2023/02/23 02:50:23;;;;;;;;;25.33;22.33;;;;;10.87;64.95;101205.56;2022727;27;3581537;-74
2023/02/23 02:51:47;;;;;;;;;22.00;22.00;;;;;10.84;64.97;101206.53;2024846;28;2842982;-74
2023/02/23 02:53:07;;;;;;;;;26.67;23.33;;;;;10.85;65.09;101202.13;2016963;28;3590840;-74
2023/02/23 02:54:31;;;;;;;;;24.67;21.33;;;;;10.84;64.88;101205.69;1998948;28;3580503;-74
2023/02/23 02:55:47;;;;;;;;;25.50;23.50;;;;;10.82;65.02;101195.19;2024427;28;2838803;-74
2023/02/23 02:57:03;;;;;;;;;21.33;19.33;;;;;10.83;64.81;101203.94;2017424;28;3573531;-74
2023/02/23 02:58:16;;;;;;;;;21.67;21.00;;;;;10.81;64.59;101201.38;2019496;28;3575244;-74
2023/02/23 04:18:34;;;;;;;;;22.00;22.00;;;;;10.31;64.00;101208.69;1998647;28;3585649;-74
2023/02/23 04:19:52;;;;;;;;;23.00;21.00;;;;;10.27;64.02;101211.44;2017918;28;2838814;-74
2023/02/23 04:21:03;;;;;;;;;24.50;21.50;;;;;10.26;64.10;101209.69;2001389;28;2830894;-74
2023/02/23 04:22:14;;;;;;;;;29.00;23.00;;;;;10.22;63.80;101209.75;2029048;27;2840225;-74
2023/02/23 04:23:27;;;;;;;;;23.67;21.00;;;;;10.21;64.06;101217.69;2010781;28;3583879;-74
2023/02/23 04:24:38;;;;;;;;;24.33;23.00;;;;;10.20;64.19;101213.31;2021102;28;3574230;-74
2023/02/23 04:25:51;;;;;;;;;24.40;21.00;;;;;10.18;64.12;101216.00;2045071;28;3596017;-74
2023/02/23 04:27:03;;;;;;;;;25.67;22.00;;;;;10.18;64.14;101213.38;1997208;27;3564800;-74
2023/02/23 04:28:14;;;;;;;;;23.33;22.00;;;;;10.18;64.48;101216.00;2015653;28;3576269;-74
2023/02/23 04:29:26;;;;;;;;;23.00;20.00;;;;;10.18;64.08;101217.75;2027145;28;3576239;-74
2023/02/23 04:30:38;;;;;;;;;25.67;23.67;;;;;10.17;64.16;101219.53;2032975;28;3579402;-74
2023/02/23 04:31:50;;;;;;;;;24.60;22.80;;;;;10.16;64.09;101219.56;2035014;28;3578313;-74
2023/02/23 04:33:03;;;;;;;;;26.00;22.67;;;;;10.16;64.12;101214.31;2025734;28;3595014;-74
2023/02/23 04:34:13;;;;;;;;;31.50;25.50;;;;;10.14;64.05;101214.34;2024967;28;2838845;-74
2023/02/23 04:35:28;;;;;;;;;25.00;23.00;;;;;10.14;63.93;101211.72;2033119;28;3575232;-74
2023/02/23 04:36:40;;;;;;;;;24.33;23.00;;;;;10.12;64.05;101214.38;2016130;28;3576257;-74
2023/02/23 04:37:52;;;;;;;;;28.00;26.00;;;;;10.11;64.18;101212.66;2040784;27;3597110;-74
2023/02/23 04:39:04;;;;;;;;;29.20;24.40;;;;;10.10;64.13;101216.19;2018120;27;3589770;-74
2023/02/23 04:40:16;;;;;;;;;32.80;23.00;;;;;10.08;63.82;101215.34;2020042;28;3612705;-74
2023/02/23 04:41:27;;;;;;;;;22.80;21.00;;;;;10.05;64.41;101215.41;2016167;28;3581466;-74
2023/02/23 04:42:40;;;;;;;;;33.33;24.67;;;;;10.05;64.19;101217.19;2037475;28;3614790;-74
2023/02/23 04:43:52;;;;;;;;;24.00;21.00;;;;;10.02;64.63;101211.09;1992516;28;3588124;-74
2023/02/23 04:45:04;;;;;;;;;29.00;25.00;;;;;10.02;64.22;101220.75;2007354;27;3594394;-74
2023/02/23 04:46:15;;;;;;;;;26.50;23.00;;;;;10.01;64.35;101216.41;2024157;28;2850280;-74
2023/02/23 04:47:27;;;;;;;;;30.67;24.67;;;;;10.01;64.46;101216.41;2016934;27;3596036;-74
2023/02/23 04:48:39;;;;;;;;;30.00;25.67;;;;;10.02;64.34;101218.13;2029798;28;3596083;-74
2023/02/23 04:49:52;;;;;;;;;29.20;27.40;;;;;10.00;64.32;101217.31;2044567;27;3592903;-74
2023/02/23 04:51:04;;;;;;;;;24.33;23.67;;;;;9.98;64.34;101217.31;2006396;27;3579347;-74
2023/02/23 04:52:16;;;;;;;;;27.20;25.20;;;;;9.98;64.36;101221.72;2038644;28;3579374;-74
2023/02/23 04:53:28;;;;;;;;;30.80;28.60;;;;;9.97;64.48;101220.88;2033376;28;3606509;-74
2023/02/23 04:54:40;;;;;;;;;27.00;24.33;;;;;9.95;64.44;101216.56;2014467;28;3582523;-74
2023/02/23 04:55:52;;;;;;;;;27.33;25.67;;;;;9.94;64.38;101220.06;2024054;28;3593988;-74
2023/02/23 04:57:05;;;;;;;;;32.20;27.20;;;;;9.94;64.40;101227.94;2043304;27;3606510;-74
2023/02/23 04:58:16;;;;;;;;;31.50;27.00;;;;;9.93;64.51;101239.31;1996110;28;2866919;-74
2023/02/23 04:59:28;;;;;;;;;27.80;27.40;;;;;9.95;64.53;101237.56;2020851;28;3596041;-74
2023/02/23 05:00:40;;;;;;;;;26.60;24.60;;;;;9.93;64.66;101234.94;2012309;28;3575208;-74
2023/02/23 05:01:51;;;;;;;;;29.00;27.00;;;;;9.93;64.38;101236.69;2036250;28;3597091;-74
2023/02/23 05:03:04;;;;;;;;;34.20;29.20;;;;;9.92;64.22;101235.88;2045117;27;3608529;-74
2023/02/23 05:04:15;;;;;;;;;28.60;26.80;;;;;9.92;64.53;101240.25;2014769;27;3591897;-74
2023/02/23 05:05:27;;;;;;;;;28.20;22.20;;;;;9.93;64.45;101244.56;2014063;28;3587033;-74
2023/02/23 05:06:39;;;;;;;;;30.60;26.00;;;;;9.93;64.36;101248.06;2011871;28;3590881;-74
2023/02/23 05:07:53;;;;;;;;;29.80;25.20;;;;;9.93;64.43;101242.81;2006970;28;3596042;-74
2023/02/23 05:09:05;;;;;;;;;23.33;21.67;;;;;9.94;64.47;101246.31;1998389;28;3580452;-74
2023/02/23 05:10:16;;;;;;;;;28.50;25.00;;;;;9.94;64.71;101247.19;2018910;28;2850242;-74
2023/02/23 05:11:29;;;;;;;;;26.00;24.00;;;;;9.94;64.44;101254.19;2012993;28;3571603;-74
2023/02/23 05:12:39;;;;;;;;;32.50;27.50;;;;;9.94;64.51;101254.19;2025343;27;2869027;-74
2023/02/23 05:13:51;;;;;;;;;32.20;27.20;;;;;9.94;64.50;101249.81;2018462;27;3597070;-74
2023/02/23 05:15:02;;;;;;;;;27.50;22.00;;;;;9.96;64.46;101255.91;2027004;28;2854422;-74
2023/02/23 05:16:14;;;;;;;;;29.60;26.60;;;;;9.97;64.43;101254.13;2005532;28;3598144;-74
2023/02/23 05:17:26;;;;;;;;;31.40;27.20;;;;;9.97;64.18;101256.75;2012477;28;3603328;-74
2023/02/23 05:18:38;;;;;;;;;26.00;23.00;;;;;9.97;64.17;101260.25;2017988;28;3584613;-74
2023/02/23 05:19:51;;;;;;;;;30.60;26.20;;;;;9.98;64.47;101267.22;2012541;28;3604398;-74
2023/02/23 05:21:06;;;;;;;;;31.50;25.50;;;;;9.98;64.25;101266.34;1998774;28;2864812;-74
2023/02/23 05:22:17;;;;;;;;;24.50;23.50;;;;;9.98;64.37;101263.72;1994434;28;2844035;-74
2023/02/23 05:23:29;;;;;;;;;33.80;28.80;;;;;9.98;64.39;101253.22;2016314;28;3595027;-74
2023/02/23 05:24:41;;;;;;;;;28.67;26.00;;;;;9.98;64.68;101258.47;2037329;28;3604397;-74
2023/02/23 05:25:53;;;;;;;;;30.67;29.00;;;;;9.97;64.52;101251.50;2000267;28;3596123;-74
2023/02/23 05:27:06;;;;;;;;;37.40;31.80;;;;;9.99;64.20;101254.97;2045023;27;3581462;-74
2023/02/23 05:28:17;;;;;;;;;32.00;29.50;;;;;9.97;64.37;101251.50;2027158;28;2865174;-74
2023/02/23 05:29:29;;;;;;;;;32.40;29.80;;;;;9.97;64.11;101255.00;2021992;28;3596068;-74
2023/02/23 05:30:41;;;;;;;;;32.00;27.80;;;;;9.95;64.20;101254.16;2012751;28;3608531;-74
2023/02/23 05:31:53;;;;;;;;;28.00;26.20;;;;;9.95;64.12;101259.41;2021467;28;3596029;-74
2023/02/23 05:33:05;;;;;;;;;29.67;27.33;;;;;9.97;64.46;101259.41;2017202;28;3590860;-74
2023/02/23 05:34:17;;;;;;;;;29.00;21.00;;;;;9.98;64.31;101258.47;2013998;27;3601717;-74
2023/02/23 05:35:29;;;;;;;;;29.00;25.20;;;;;9.98;64.39;101255.84;2035061;28;3592935;-74
2023/02/23 05:36:41;;;;;;;;;28.40;26.20;;;;;9.97;64.11;101257.63;2017239;28;3577287;-74
2023/02/23 05:37:52;;;;;;;;;28.60;26.60;;;;;9.98;64.23;101258.47;2040671;28;3602283;-74
2023/02/23 05:39:05;;;;;;;;;27.60;25.40;;;;;9.97;64.36;101259.41;2022696;28;3591870;-74
2023/02/23 05:40:17;;;;;;;;;29.40;26.20;;;;;9.97;63.83;101260.25;2014124;28;3604720;-74
2023/02/23 05:41:28;;;;;;;;;33.00;30.20;;;;;9.97;63.89;101260.25;2005865;27;3604398;-74
2023/02/23 05:42:40;;;;;;;;;30.60;27.00;;;;;9.96;64.03;101255.91;2021590;28;3597066;-74
2023/02/23 05:43:54;;;;;;;;;33.20;26.20;;;;;9.95;64.05;101264.66;2020798;28;3599172;-74
2023/02/23 05:45:06;;;;;;;;;35.00;28.50;;;;;9.94;63.94;101268.19;1995727;28;2869033;-74
2023/02/23 05:46:20;;;;;;;;;36.50;28.00;;;;;9.94;64.12;101262.94;2002731;28;2875228;-74
2023/02/23 05:47:31;;;;;;;;;30.00;28.00;;;;;9.94;64.12;101262.06;2001850;28;2855422;-74
2023/02/23 05:48:42;;;;;;;;;28.50;27.50;;;;;9.95;64.22;101271.69;2004143;28;2847466;-74
2023/02/23 05:49:53;;;;;;;;;29.60;28.40;;;;;9.94;63.67;101265.56;2013253;28;3602267;-74
2023/02/23 05:51:08;;;;;;;;;35.40;29.20;;;;;9.95;64.05;101269.06;2018950;28;3617919;-74
2023/02/23 05:52:19;;;;;;;;;33.00;30.50;;;;;9.94;64.30;101268.19;1994963;28;2836740;-74
2023/02/23 05:53:31;;;;;;;;;34.80;30.00;;;;;9.93;64.03;101262.97;2014653;28;3612754;-74
2023/02/23 05:54:43;;;;;;;;;24.33;24.33;;;;;9.93;64.06;101265.59;2009652;27;3587725;-74
2023/02/23 05:55:55;;;;;;;;;33.40;28.20;;;;;9.93;64.04;101270.84;2042109;27;3605411;-74
2023/02/23 05:57:07;;;;;;;;;29.60;28.00;;;;;9.93;64.08;101273.47;2022474;28;3598121;-74
2023/02/23 05:58:19;;;;;;;;;31.33;27.00;;;;;9.95;64.17;101271.69;2015060;28;3604411;-74
2023/02/23 05:59:31;;;;;;;;;32.20;28.60;;;;;9.95;64.36;101264.66;2019094;27;3607486;-74
2023/02/23 06:00:43;;;;;;;;;31.60;28.40;;;;;9.96;64.27;101268.16;2021421;28;3612696;-74
2023/02/23 06:01:55;;;;;;;;;34.40;30.20;;;;;9.95;64.53;101275.16;2019262;27;3609579;-74
2023/02/23 06:03:07;;;;;;;;;33.60;28.40;;;;;9.95;64.26;101264.66;2020323;28;3607490;-74
2023/02/23 06:04:19;;;;;;;;;36.00;30.60;;;;;9.97;63.95;101267.28;2010486;28;3607522;-74
2023/02/23 06:05:31;;;;;;;;;35.33;31.33;;;;;9.98;64.04;101259.34;1998328;28;3603341;-74
2023/02/23 06:06:43;;;;;;;;;31.33;26.67;;;;;10.00;64.63;101257.53;2016919;27;3591901;-74
2023/02/23 06:07:54;;;;;;;;;42.50;33.00;;;;;10.02;64.22;101260.16;2025863;27;2845053;-74
2023/02/23 06:09:06;;;;;;;;;38.00;33.40;;;;;10.04;64.21;101263.59;2009647;28;3579375;-74
2023/02/23 06:10:18;;;;;;;;;43.33;33.00;;;;;10.05;64.15;101261.84;2039601;28;3626316;-74
2023/02/23 06:11:30;;;;;;;;;41.60;33.20;;;;;10.04;64.05;101271.50;2018844;27;3599207;-74
2023/02/23 06:12:42;;;;;;;;;38.00;33.20;;;;;10.02;63.78;101262.78;2006597;28;3580435;-74
2023/02/23 06:13:54;;;;;;;;;44.20;33.80;;;;;10.00;63.85;101267.22;2020881;28;3587744;-74
2023/02/23 06:15:06;;;;;;;;;39.00;34.80;;;;;9.99;63.93;101265.47;2040653;28;3589795;-74
2023/02/23 06:16:17;;;;;;;;;34.00;32.00;;;;;9.98;63.97;101268.97;2026242;28;2855450;-74
2023/02/23 06:17:29;;;;;;;;;42.40;33.80;;;;;9.97;63.78;101269.91;2021162;28;3603328;-74
2023/02/23 06:18:41;;;;;;;;;38.33;30.00;;;;;9.94;63.41;101264.69;2001636;28;2870033;-74
2023/02/23 06:19:52;;;;;;;;;35.33;29.00;;;;;9.92;63.63;101264.75;2025246;28;2868963;-74
2023/02/23 06:21:03;;;;;;;;;35.33;31.00;;;;;9.89;63.61;101265.69;2018046;28;3583560;-74
2023/02/23 06:22:16;;;;;;;;;34.40;31.00;;;;;9.86;63.76;101255.22;2005788;28;3610067;-74
2023/02/23 06:23:28;;;;;;;;;40.00;31.00;;;;;9.86;63.60;101267.50;2002165;28;2863795;-74
2023/02/23 06:24:38;;;;;;;;;46.00;33.00;;;;;9.85;63.85;101265.78;2003374;27;2852340;-74
2023/02/23 06:25:50;;;;;;;;;38.60;32.40;;;;;9.83;63.69;101270.19;2016754;27;3601595;-74
2023/02/23 06:27:03;;;;;;;;;32.60;28.60;;;;;9.79;63.63;101274.63;2026655;27;3598147;-74
2023/02/23 06:28:14;;;;;;;;;33.80;31.40;;;;;9.78;63.55;101272.91;2021466;27;3590809;-74
2023/02/23 06:29:26;;;;;;;;;34.60;32.20;;;;;9.76;64.01;101269.44;2019365;28;3593980;-74
2023/02/23 06:30:39;;;;;;;;;36.00;31.33;;;;;9.73;63.61;101259.88;2014790;28;3586729;-74
2023/02/23 06:31:50;;;;;;;;;32.80;30.40;;;;;9.75;63.90;101267.72;2013849;28;3577312;-74
2023/02/23 06:33:03;;;;;;;;;24.60;19.20;;;;;9.74;63.86;101271.25;2047020;28;1826331;-74
2023/02/23 06:34:14;;;;;;;;;36.00;31.00;;;;;9.72;63.69;101259.91;2015952;28;2855525;-74
2023/02/23 06:35:26;;;;;;;;;38.40;30.20;;;;;9.72;63.47;101263.41;2018220;27;3600268;-74
2023/02/23 06:36:38;;;;;;;;;34.60;31.00;;;;;9.70;63.66;101267.84;2036222;28;3598128;-74
2023/02/23 06:37:49;;;;;;;;;33.80;28.20;;;;;9.71;63.76;101266.03;2017681;28;3585742;-74
2023/02/23 06:39:03;;;;;;;;;31.20;28.80;;;;;9.70;63.55;101264.34;2018615;28;3597111;-75
2023/02/23 06:40:13;;;;;;;;;30.00;26.00;;;;;9.70;63.81;101261.72;1997613;28;2860764;-74
2023/02/23 06:41:26;;;;;;;;;36.00;32.00;;;;;9.72;64.02;101262.53;2014118;28;3590855;-74
2023/02/23 06:42:37;;;;;;;;;32.00;29.80;;;;;9.70;63.84;101259.97;2004717;28;3589846;-74
2023/02/23 06:43:50;;;;;;;;;35.80;30.60;;;;;9.69;63.75;101258.22;2012184;28;3585673;-74
2023/02/23 06:45:03;;;;;;;;;35.00;30.00;;;;;9.70;63.59;101264.34;1995794;28;2848154;-74
2023/02/23 06:46:14;;;;;;;;;35.67;30.00;;;;;9.69;63.85;101268.72;1997412;28;3598151;-75
2023/02/23 06:47:26;;;;;;;;;27.00;24.20;;;;;9.70;63.90;101269.59;2010689;28;3585642;-74
2023/02/23 06:48:38;;;;;;;;;35.60;28.40;;;;;9.71;63.96;101266.91;2044000;28;3620002;-74
2023/02/23 06:49:50;;;;;;;;;35.00;30.60;;;;;9.70;64.18;101270.47;2005021;28;3584605;-74
2023/02/23 06:51:02;;;;;;;;;28.80;27.40;;;;;9.71;63.68;101271.31;2016400;28;3603380;-74
2023/02/23 06:52:14;;;;;;;;;30.67;26.67;;;;;9.71;63.92;101268.66;2009802;27;3606573;-74
2023/02/23 06:53:26;;;;;;;;;37.00;30.40;;;;;9.71;63.82;101276.53;2016127;28;3575718;-74